createdAt,value
2019-03-29T00:00:28.844Z,96.30
2019-03-29T00:03:34.974Z,96.30
2019-03-29T00:06:40.609Z,96.10
2019-03-29T00:09:46.136Z,96.10
2019-03-29T00:12:51.597Z,95.90
2019-03-29T00:15:57.044Z,95.90
2019-03-29T00:19:02.650Z,95.80
2019-03-29T00:22:08.161Z,95.90
2019-03-29T00:25:13.685Z,95.80
2019-03-29T00:28:19.204Z,95.80
2019-03-29T00:31:24.701Z,95.80
2019-03-29T00:34:30.240Z,95.70
2019-03-29T00:37:35.784Z,95.70
2019-03-29T00:40:41.299Z,95.70
2019-03-29T00:43:46.784Z,95.70
2019-03-29T00:46:52.240Z,95.70
2019-03-29T00:49:57.778Z,95.60
2019-03-29T00:53:03.237Z,95.70
2019-03-29T00:56:08.700Z,95.70
2019-03-29T00:59:14.304Z,96.10
2019-03-29T01:02:20.481Z,95.70
2019-03-29T01:05:27.086Z,95.80
2019-03-29T01:08:32.637Z,95.90
2019-03-29T01:11:38.087Z,96.00
2019-03-29T01:14:43.792Z,96.40
2019-03-29T01:17:49.314Z,96.00
2019-03-29T01:20:54.936Z,96.10
2019-03-29T01:24:00.465Z,96.10
2019-03-29T01:27:05.929Z,96.10
2019-03-29T01:30:11.616Z,96.00
2019-03-29T01:33:17.144Z,96.00
2019-03-29T01:36:22.620Z,96.00
2019-03-29T01:39:28.090Z,96.10
2019-03-29T01:42:33.547Z,96.20
2019-03-29T01:45:39.200Z,96.20
2019-03-29T01:48:44.652Z,96.40
2019-03-29T01:51:50.109Z,96.40
2019-03-29T01:54:57.008Z,96.50
2019-03-29T01:58:02.656Z,96.60
2019-03-29T02:01:08.192Z,96.70
2019-03-29T02:04:13.645Z,96.90
2019-03-29T02:07:19.098Z,96.90
2019-03-29T02:10:24.713Z,97.00
2019-03-29T02:13:30.165Z,97.00
2019-03-29T02:16:35.632Z,97.00
2019-03-29T02:19:41.197Z,97.10
2019-03-29T02:22:46.640Z,97.20
2019-03-29T02:25:52.102Z,97.20
2019-03-29T02:28:57.544Z,97.30
2019-03-29T02:32:02.998Z,97.30
2019-03-29T02:35:08.591Z,97.30
2019-03-29T02:38:14.130Z,97.30
2019-03-29T02:41:19.748Z,97.10
2019-03-29T02:44:25.342Z,97.10
2019-03-29T02:47:30.869Z,97.30
2019-03-29T02:50:36.860Z,96.80
2019-03-29T02:53:42.659Z,96.80
2019-03-29T02:56:48.136Z,96.70
2019-03-29T02:59:53.583Z,96.70
2019-03-29T03:02:59.201Z,96.80
2019-03-29T03:06:04.757Z,96.80
2019-03-29T03:09:14.045Z,96.80
2019-03-29T03:12:17.468Z,96.90
2019-03-29T03:15:23.085Z,96.90
2019-03-29T03:18:28.633Z,96.80
2019-03-29T03:21:34.161Z,96.80
2019-03-29T03:24:39.965Z,96.90
2019-03-29T03:27:46.201Z,96.90
2019-03-29T03:30:51.851Z,96.90
2019-03-29T03:33:57.454Z,96.90
2019-03-29T03:37:02.980Z,96.80
2019-03-29T03:40:09.993Z,96.80
2019-03-29T03:43:16.396Z,96.90
2019-03-29T03:46:22.024Z,96.90
2019-03-29T03:49:27.742Z,96.90
2019-03-29T03:52:33.408Z,96.90
2019-03-29T03:55:40.189Z,97.00
2019-03-29T03:58:47.002Z,97.10
2019-03-29T04:01:52.607Z,97.20
2019-03-29T04:04:59.495Z,97.10
2019-03-29T04:08:05.067Z,97.00
2019-03-29T04:11:10.562Z,96.90
2019-03-29T04:14:16.029Z,96.80
2019-03-29T04:17:21.491Z,96.70
2019-03-29T04:20:26.961Z,96.70
2019-03-29T04:23:32.455Z,96.80
2019-03-29T04:26:37.977Z,96.90
2019-03-29T04:29:43.427Z,96.90
2019-03-29T04:32:48.968Z,96.80
2019-03-29T04:35:54.505Z,96.80
2019-03-29T04:38:59.974Z,96.80
2019-03-29T04:42:05.521Z,96.70
2019-03-29T04:45:11.146Z,96.60
2019-03-29T04:48:16.694Z,96.60
2019-03-29T04:51:22.673Z,96.70
2019-03-29T04:54:28.208Z,96.90
2019-03-29T04:57:33.665Z,97.00
2019-03-29T05:00:39.517Z,97.10
2019-03-29T05:03:45.081Z,97.30
2019-03-29T05:06:50.530Z,97.50
2019-03-29T05:09:56.012Z,97.70
2019-03-29T05:13:01.554Z,97.80
2019-03-29T05:16:07.025Z,97.90
2019-03-29T05:19:12.553Z,98.00
2019-03-29T05:22:18.014Z,98.10
2019-03-29T05:25:23.498Z,98.20
2019-03-29T05:28:29.005Z,98.30
2019-03-29T05:31:34.471Z,98.30
2019-03-29T05:34:39.920Z,98.30
2019-03-29T05:37:45.397Z,98.30
2019-03-29T05:40:50.860Z,98.40
2019-03-29T05:43:56.336Z,98.30
2019-03-29T05:47:01.876Z,98.40
2019-03-29T05:50:09.424Z,98.50
2019-03-29T05:53:14.886Z,98.50
2019-03-29T05:56:20.439Z,98.60
2019-03-29T05:59:25.912Z,98.50
2019-03-29T06:02:31.461Z,98.50
2019-03-29T06:05:36.955Z,98.50
2019-03-29T06:08:42.403Z,98.50
2019-03-29T06:11:47.893Z,98.50
2019-03-29T06:14:53.432Z,98.50
2019-03-29T06:17:58.898Z,98.30
2019-03-29T06:21:04.442Z,98.30
2019-03-29T06:24:09.981Z,98.20
2019-03-29T06:27:15.526Z,98.10
2019-03-29T06:30:30.025Z,98.10
2019-03-29T06:33:35.804Z,98.10
2019-03-29T06:36:42.309Z,98.10
2019-03-29T06:39:48.776Z,98.10
2019-03-29T06:42:54.701Z,98.20
2019-03-29T06:46:00.239Z,98.30
2019-03-29T06:49:05.840Z,98.30
2019-03-29T06:52:11.409Z,98.30
2019-03-29T06:55:17.181Z,98.30
2019-03-29T06:58:22.771Z,98.40
2019-03-29T07:01:28.386Z,98.50
2019-03-29T07:04:33.872Z,98.50
2019-03-29T07:07:39.505Z,98.90
2019-03-29T07:10:44.973Z,98.50
2019-03-29T07:13:57.358Z,98.50
2019-03-29T07:16:57.752Z,98.50
2019-03-29T07:20:03.471Z,98.40
2019-03-29T07:23:09.051Z,98.30
2019-03-29T07:26:14.581Z,98.20
2019-03-29T07:29:20.929Z,97.70
2019-03-29T07:32:26.545Z,97.30
2019-03-29T07:35:32.098Z,96.30
2019-03-29T07:38:37.608Z,96.00
2019-03-29T07:41:43.072Z,95.50
2019-03-29T07:44:48.885Z,94.90
2019-03-29T07:47:54.453Z,94.60
2019-03-29T07:51:00.091Z,94.50
2019-03-29T07:54:05.649Z,93.90
2019-03-29T07:57:11.125Z,93.90
2019-03-29T08:00:20.189Z,93.10
2019-03-29T08:03:23.995Z,92.70
2019-03-29T08:06:29.685Z,92.40
2019-03-29T08:09:35.403Z,92.10
2019-03-29T08:12:40.892Z,91.70
2019-03-29T08:15:46.379Z,92.00
2019-03-29T08:18:51.926Z,91.30
2019-03-29T08:21:58.067Z,91.30
2019-03-29T08:25:03.842Z,91.20
2019-03-29T08:28:09.379Z,90.90
2019-03-29T08:31:15.037Z,90.90
2019-03-29T08:34:20.523Z,89.90
2019-03-29T08:37:26.145Z,89.50
2019-03-29T08:40:31.690Z,88.10
2019-03-29T08:43:37.266Z,87.50
2019-03-29T08:46:42.712Z,85.30
2019-03-29T08:49:48.197Z,83.50
2019-03-29T08:52:53.803Z,82.90
2019-03-29T08:55:59.353Z,82.50
2019-03-29T08:59:04.830Z,80.00
2019-03-29T09:02:10.538Z,78.80
2019-03-29T09:05:16.149Z,76.20
2019-03-29T09:08:21.791Z,74.60
2019-03-29T09:11:27.260Z,72.60
2019-03-29T09:14:32.797Z,72.30
2019-03-29T09:17:38.262Z,73.20
2019-03-29T09:20:43.790Z,72.50
2019-03-29T09:23:49.357Z,71.60
2019-03-29T09:26:54.888Z,71.40
2019-03-29T09:30:00.506Z,70.50
2019-03-29T09:33:06.264Z,70.40
2019-03-29T09:36:11.918Z,69.70
2019-03-29T09:39:17.538Z,69.20
2019-03-29T09:42:29.598Z,69.40
2019-03-29T09:45:30.424Z,69.00
2019-03-29T09:48:35.978Z,68.70
2019-03-29T09:51:41.530Z,68.10
2019-03-29T09:54:47.089Z,67.80
2019-03-29T09:57:52.632Z,66.70
2019-03-29T10:00:58.477Z,66.10
2019-03-29T10:04:04.099Z,66.90
2019-03-29T10:07:09.566Z,67.10
2019-03-29T10:10:17.657Z,66.80
2019-03-29T10:13:23.201Z,66.30
2019-03-29T10:16:28.733Z,65.50
2019-03-29T10:19:34.651Z,64.70
2019-03-29T10:22:40.313Z,64.50
2019-03-29T10:25:45.953Z,64.60
2019-03-29T10:28:51.442Z,63.90
2019-03-29T10:31:56.925Z,62.70
2019-03-29T10:35:02.569Z,62.90
2019-03-29T10:38:08.194Z,62.80
2019-03-29T10:41:13.696Z,63.00
2019-03-29T10:44:19.244Z,63.20
2019-03-29T10:47:42.065Z,62.50
2019-03-29T10:50:31.926Z,62.60
2019-03-29T10:53:37.568Z,62.40
2019-03-29T10:56:43.295Z,61.30
2019-03-29T10:59:48.931Z,60.90
2019-03-29T11:02:54.393Z,61.50
2019-03-29T11:06:01.248Z,62.00
2019-03-29T11:09:08.120Z,61.10
2019-03-29T11:12:13.665Z,59.80
2019-03-29T11:15:19.214Z,60.10
2019-03-29T11:18:24.758Z,61.30
2019-03-29T11:21:30.289Z,61.10
2019-03-29T11:24:35.769Z,60.60
2019-03-29T11:27:41.229Z,60.00
2019-03-29T11:30:46.785Z,59.90
2019-03-29T11:33:52.335Z,60.20
2019-03-29T11:36:57.813Z,60.30
2019-03-29T11:40:03.520Z,59.90
2019-03-29T11:43:09.080Z,59.80
2019-03-29T11:46:14.565Z,59.60
2019-03-29T11:49:20.153Z,59.10
2019-03-29T11:52:25.750Z,59.00
2019-03-29T11:55:31.413Z,58.30
2019-03-29T11:58:36.960Z,59.00
2019-03-29T12:01:42.508Z,58.90
2019-03-29T12:04:48.059Z,59.00
2019-03-29T12:07:53.542Z,59.40
2019-03-29T12:10:58.993Z,59.50
2019-03-29T12:14:05.171Z,59.40
2019-03-29T12:17:10.786Z,59.20
2019-03-29T12:20:16.515Z,58.90
2019-03-29T12:23:22.360Z,59.00
2019-03-29T12:26:28.208Z,59.40
2019-03-29T12:29:33.772Z,58.60
2019-03-29T12:32:39.389Z,58.70
2019-03-29T12:35:44.873Z,58.80
2019-03-29T12:38:50.548Z,58.60
2019-03-29T12:41:56.219Z,57.90
2019-03-29T12:45:01.787Z,57.40
2019-03-29T12:48:07.461Z,57.40
2019-03-29T12:51:13.038Z,57.00
2019-03-29T12:54:18.854Z,57.10
2019-03-29T12:57:24.441Z,56.70
2019-03-29T13:00:30.277Z,56.20
2019-03-29T13:03:35.915Z,56.00
2019-03-29T13:06:41.373Z,55.60
2019-03-29T13:09:46.838Z,55.60
2019-03-29T13:12:52.537Z,55.80
2019-03-29T13:15:58.060Z,55.80
2019-03-29T13:19:03.638Z,55.40
2019-03-29T13:22:09.645Z,55.30
2019-03-29T13:25:15.280Z,55.40
2019-03-29T13:28:20.802Z,56.30
2019-03-29T13:31:26.370Z,55.40
2019-03-29T13:34:31.929Z,55.40
2019-03-29T13:37:37.475Z,55.90
2019-03-29T13:40:43.154Z,55.90
2019-03-29T13:43:48.723Z,55.70
2019-03-29T13:46:54.367Z,55.80
2019-03-29T13:49:59.960Z,55.70
2019-03-29T13:53:05.546Z,55.60
2019-03-29T13:56:11.210Z,55.40
2019-03-29T13:59:16.861Z,55.30
2019-03-29T14:02:22.397Z,55.10
2019-03-29T14:05:27.913Z,55.00
2019-03-29T14:08:33.387Z,55.10
2019-03-29T14:11:39.795Z,54.90
2019-03-29T14:14:45.560Z,54.70
2019-03-29T14:17:51.093Z,54.90
2019-03-29T14:20:56.698Z,54.10
2019-03-29T14:24:02.394Z,53.80
2019-03-29T14:27:07.903Z,53.00
2019-03-29T14:30:13.605Z,52.70
2019-03-29T14:33:19.093Z,52.60
2019-03-29T14:36:24.629Z,52.60
2019-03-29T14:39:30.234Z,52.90
2019-03-29T14:42:36.155Z,52.60
2019-03-29T14:45:41.746Z,52.00
2019-03-29T14:48:47.267Z,52.50
2019-03-29T14:51:52.911Z,52.10
2019-03-29T14:54:58.518Z,51.60
2019-03-29T14:58:04.105Z,50.40
2019-03-29T15:01:09.769Z,50.30
2019-03-29T15:04:15.354Z,49.50
2019-03-29T15:07:21.086Z,49.30
2019-03-29T15:10:27.430Z,48.70
2019-03-29T15:13:33.036Z,48.50
2019-03-29T15:16:38.509Z,48.40
2019-03-29T15:19:44.057Z,48.60
2019-03-29T15:22:49.796Z,48.30
2019-03-29T15:25:55.490Z,48.50
2019-03-29T15:29:01.135Z,48.50
2019-03-29T15:32:06.733Z,48.60
2019-03-29T15:35:12.474Z,48.70
2019-03-29T15:38:17.940Z,48.60
2019-03-29T15:41:23.596Z,48.30
2019-03-29T15:44:29.130Z,48.40
2019-03-29T15:47:34.625Z,48.70
2019-03-29T15:50:40.094Z,49.00
2019-03-29T15:53:45.653Z,49.30
2019-03-29T15:56:51.133Z,49.50
2019-03-29T15:59:56.696Z,49.70
2019-03-29T16:03:02.244Z,49.70
2019-03-29T16:06:07.915Z,49.70
2019-03-29T16:09:13.610Z,49.80
2019-03-29T16:12:19.139Z,49.50
2019-03-29T16:15:34.955Z,49.10
2019-03-29T16:18:31.989Z,49.20
2019-03-29T16:21:38.931Z,49.80
2019-03-29T16:24:44.476Z,49.80
2019-03-29T16:27:50.108Z,49.80
2019-03-29T16:30:55.696Z,50.40
2019-03-29T16:34:01.177Z,51.10
2019-03-29T16:37:06.911Z,50.90
2019-03-29T16:40:12.824Z,50.80
2019-03-29T16:43:18.512Z,51.10
2019-03-29T16:46:24.104Z,51.40
2019-03-29T16:49:30.099Z,51.60
2019-03-29T16:52:35.871Z,51.90
2019-03-29T16:55:41.506Z,51.90
2019-03-29T16:58:47.230Z,51.90
2019-03-29T17:01:52.935Z,51.70
2019-03-29T17:04:58.708Z,51.80
2019-03-29T17:08:05.510Z,52.00
2019-03-29T17:11:11.504Z,52.20
2019-03-29T17:14:17.105Z,52.30
2019-03-29T17:17:22.835Z,52.30
2019-03-29T17:20:28.581Z,52.60
2019-03-29T17:23:34.166Z,52.90
2019-03-29T17:26:39.816Z,53.20
2019-03-29T17:29:45.591Z,53.40
2019-03-29T17:32:51.101Z,53.60
2019-03-29T17:35:58.702Z,53.80
2019-03-29T17:39:06.147Z,54.10
2019-03-29T17:42:11.629Z,53.40
2019-03-29T19:21:47.752Z,64.30
2019-03-29T19:24:53.232Z,66.00
2019-03-29T19:27:58.701Z,67.30
2019-03-29T19:31:04.317Z,68.70
2019-03-29T19:34:09.777Z,68.30
2019-03-29T19:37:15.350Z,69.20
2019-03-29T19:40:20.877Z,68.50
2019-03-29T19:43:26.355Z,68.50
2019-03-29T19:46:31.824Z,68.40
2019-03-29T19:49:37.433Z,68.20
2019-03-29T19:52:43.207Z,68.20
2019-03-29T19:55:48.727Z,68.30
2019-03-29T19:58:54.185Z,68.30
2019-03-29T20:01:59.729Z,68.30
2019-03-29T20:05:06.949Z,68.10
2019-03-29T20:08:12.588Z,68.30
2019-03-29T20:11:18.064Z,68.10
2019-03-29T20:14:23.653Z,68.30
2019-03-29T20:17:29.225Z,68.50
2019-03-29T20:20:34.786Z,68.70
2019-03-29T20:23:40.307Z,69.10
2019-03-29T20:26:45.847Z,69.40
2019-03-29T20:29:51.309Z,69.90
2019-03-29T20:32:56.865Z,69.70
2019-03-29T20:36:02.479Z,69.80
2019-03-29T20:39:08.512Z,70.00
2019-03-29T20:42:13.957Z,70.20
2019-03-29T20:45:19.979Z,70.40
2019-03-29T20:48:25.450Z,70.80
2019-03-29T20:51:31.037Z,71.00
2019-03-29T20:54:36.571Z,71.10
2019-03-29T20:57:42.114Z,71.10
2019-03-29T21:00:48.885Z,71.20
2019-03-29T21:03:54.503Z,71.40
2019-03-29T21:06:59.966Z,72.00
2019-03-29T21:10:06.005Z,71.90
2019-03-29T21:13:11.503Z,72.10
2019-03-29T21:16:17.115Z,72.30
2019-03-29T21:19:22.589Z,73.50
2019-03-29T21:22:28.186Z,73.00
2019-03-29T21:25:33.808Z,73.50
2019-03-29T21:28:39.269Z,74.20
2019-03-29T21:31:44.750Z,74.10
2019-03-29T21:34:50.244Z,74.90
2019-03-29T21:37:55.706Z,75.10
2019-03-29T21:41:01.165Z,75.50
2019-03-29T21:44:06.655Z,75.60
2019-03-29T21:47:12.196Z,76.20
2019-03-29T21:50:18.013Z,76.80
2019-03-29T21:53:23.484Z,77.10
2019-03-29T21:56:28.937Z,77.30
2019-03-29T21:59:34.464Z,77.50
2019-03-29T22:02:39.999Z,77.80
2019-03-29T22:05:45.476Z,78.10
2019-03-29T22:08:50.955Z,78.10
2019-03-29T22:11:56.412Z,78.20
2019-03-29T22:15:02.040Z,78.20
2019-03-29T22:18:07.583Z,78.50
2019-03-29T22:21:13.056Z,78.40
2019-03-29T22:24:18.644Z,78.50
2019-03-29T22:27:24.192Z,78.90
2019-03-29T22:30:29.665Z,79.00
2019-03-29T22:33:35.125Z,79.30
2019-03-29T22:36:40.580Z,79.80
2019-03-29T22:39:46.116Z,80.30
2019-03-29T22:42:51.580Z,80.60
2019-03-29T22:45:57.118Z,81.50
2019-03-29T22:49:02.573Z,81.00
2019-03-29T22:52:08.137Z,81.40
2019-03-29T22:55:13.742Z,82.90
2019-03-29T22:58:19.305Z,83.10
2019-03-29T23:01:24.953Z,83.50
2019-03-29T23:04:30.497Z,83.60
2019-03-29T23:07:35.942Z,83.70
2019-03-29T23:10:41.460Z,83.70
2019-03-29T23:13:47.277Z,83.90
2019-03-29T23:16:52.846Z,84.00
2019-03-29T23:19:58.303Z,84.30
2019-03-29T23:23:03.751Z,84.20
2019-03-29T23:26:09.289Z,84.40
2019-03-29T23:29:14.747Z,85.40
2019-03-29T23:32:20.316Z,84.90
2019-03-29T23:35:25.852Z,85.00
2019-03-29T23:38:31.306Z,85.00
2019-03-29T23:41:36.849Z,85.10
2019-03-29T23:44:42.288Z,85.20
2019-03-29T23:47:47.756Z,85.60
2019-03-29T23:50:53.212Z,85.70
2019-03-29T23:53:58.740Z,85.90
2019-03-29T23:57:04.272Z,86.10
